Time;durP1;ratioP1;P1;durP2;ratioP2;P2;SDS_P1;SDS_P2;PMS_P1;PMS_P2;Temp;Humidity;BMP_temperature;BMP_pressure;BME280_temperature;BME280_humidity;BME280_pressure;Samples;Min_cycle;Max_cycle;Signal;HPM_P1;HPM_P2
2022/09/12 00:00:49;;;;;;;3.70;2.38;;;;;;;29.25;27.54;97938.75;5067826;28;20460;-77
2022/09/12 00:03:15;;;;;;;3.83;2.92;;;;;;;29.30;28.01;97943.00;5070746;28;20065;-78
2022/09/12 00:05:46;;;;;;;6.07;2.97;;;;;;;29.20;28.27;97933.72;5072290;28;20028;-77
2022/09/12 00:08:13;;;;;;;;;;;;;;;29.47;28.69;97943.44;5069002;28;20154;-78
2022/09/12 00:10:44;;;;;;;4.50;3.25;;;;;;;29.45;28.06;97952.41;5071217;28;19935;-77
2022/09/12 00:13:11;;;;;;;2.80;2.33;;;;;;;29.39;27.92;97942.97;5069424;28;20040;-78
2022/09/12 00:15:39;;;;;;;3.53;3.22;;;;;;;29.40;27.99;97948.19;5070085;28;20043;-77
2022/09/12 00:18:07;;;;;;;7.07;3.40;;;;;;;28.88;28.43;97940.00;5070813;28;20474;-77
2022/09/12 00:20:33;;;;;;;3.22;2.80;;;;;;;29.05;28.50;97946.91;5064687;28;20040;-77
2022/09/12 00:22:59;;;;;;;3.45;2.95;;;;;;;28.75;29.21;97945.03;5069253;28;20056;-77
2022/09/12 00:25:25;;;;;;;4.13;3.40;;;;;;;28.97;28.67;97944.84;5068708;28;20078;-77
2022/09/12 00:27:52;;;;;;;4.75;3.38;;;;;;;28.98;28.75;97941.56;5068713;28;20031;-77
2022/09/12 00:30:18;;;;;;;3.42;3.13;;;;;;;28.89;28.73;97944.41;5068841;28;20494;-77
2022/09/12 00:32:44;;;;;;;3.45;3.15;;;;;;;28.97;28.44;97947.69;5065617;28;20032;-77
2022/09/12 00:35:10;;;;;;;6.65;4.95;;;;;;;29.15;28.43;97947.69;5070392;28;20482;-78
2022/09/12 00:37:36;;;;;;;4.07;3.55;;;;;;;29.25;28.48;97950.06;5065158;28;20490;-78
2022/09/12 00:40:03;;;;;;;6.40;4.90;;;;;;;29.14;28.50;97951.78;5068920;28;20493;-77
2022/09/12 00:42:29;;;;;;;4.28;3.25;;;;;;;29.13;28.48;97945.31;5065281;28;20507;-77
2022/09/12 00:44:55;;;;;;;4.00;3.17;;;;;;;28.67;29.60;97952.22;5066701;28;20035;-77
2022/09/12 00:47:29;;;;;;;3.28;2.95;;;;;;;29.07;28.77;97946.44;5070906;28;20362;-77
2022/09/12 00:50:12;;;;;;;6.63;3.83;;;;;;;29.21;28.58;97946.63;5069687;28;20055;-77
2022/09/12 00:52:56;;;;;;;4.10;3.70;;;;;;;29.21;28.51;97948.66;5064740;28;20029;-77
2022/09/12 00:55:28;;;;;;;4.93;4.07;;;;;;;28.80;29.01;97952.84;5068676;28;20036;-77
2022/09/12 00:58:20;;;;;;;5.18;4.68;;;;;;;28.75;28.84;97953.50;5070557;28;20496;-77
2022/09/12 01:00:47;;;;;;;7.70;4.43;;;;;;;28.84;28.64;97953.50;5066833;28;20028;-77
2022/09/12 01:03:16;;;;;;;6.63;4.60;;;;;;;28.35;29.23;97962.00;5066576;28;20056;-77
2022/09/12 01:05:52;;;;;;;6.93;4.20;;;;;;;28.55;29.04;97956.72;5071077;28;20016;-77
2022/09/12 01:08:19;;;;;;;6.13;4.90;;;;;;;29.10;27.95;97960.41;5064316;28;20490;-77
2022/09/12 01:10:46;;;;;;;4.35;3.95;;;;;;;29.08;27.92;97957.25;5071128;28;20042;-77
2022/09/12 01:13:13;;;;;;;5.88;4.20;;;;;;;29.12;27.71;97963.56;5062648;28;20039;-77
2022/09/12 01:15:40;;;;;;;4.70;4.03;;;;;;;28.96;28.17;97961.06;5065787;28;20035;-77
2022/09/12 01:18:47;;;;;;;8.63;7.03;;;;;;;28.74;28.87;97964.00;5070950;28;20029;-78
2022/09/12 01:21:34;;;;;;;5.40;4.55;;;;;;;28.81;28.87;97962.91;4980553;28;20140;-78
2022/09/12 01:24:25;;;;;;;6.95;5.35;;;;;;;28.81;28.81;97962.91;5061956;28;20044;-77
2022/09/12 01:27:09;;;;;;;6.95;4.65;;;;;;;28.97;28.53;97956.97;5064406;28;20458;-77
2022/09/12 01:29:59;;;;;;;9.50;6.45;;;;;;;28.81;28.64;97962.13;5066500;28;20157;-77
2022/09/12 01:32:33;;;;;;;4.05;3.50;;;;;;;28.82;28.77;97960.88;5067512;28;20044;-77
2022/09/12 01:35:21;;;;;;;4.30;3.90;;;;;;;28.96;28.32;97963.09;5060561;28;20445;-77
2022/09/12 01:38:10;;;;;;;5.18;4.65;;;;;;;29.11;27.68;97959.16;5065886;28;20122;-77
2022/09/12 01:40:49;;;;;;;5.63;4.35;;;;;;;29.35;27.67;97954.47;5063614;28;20033;-77
2022/09/12 01:43:22;;;;;;;6.20;4.43;;;;;;;29.67;26.87;97953.00;5065767;28;20036;-78
2022/09/12 01:46:00;;;;;;;4.55;3.75;;;;;;;29.59;27.14;97960.25;5068244;28;20040;-78
2022/09/12 01:48:35;;;;;;;6.68;4.57;;;;;;;29.61;27.13;97957.72;5065744;28;20071;-78
2022/09/12 01:51:22;;;;;;;6.65;4.72;;;;;;;29.60;26.99;97949.69;5067478;28;20035;-78
2022/09/12 01:53:54;;;;;;;4.32;3.92;;;;;;;29.42;26.69;97964.66;5064166;28;20028;-78
2022/09/12 01:56:29;;;;;;;5.22;4.50;;;;;;;29.24;27.24;97968.28;5065129;28;20032;-77
2022/09/12 01:59:05;;;;;;;4.97;4.45;;;;;;;29.05;27.63;97961.06;5070311;28;20393;-77
2022/09/12 02:01:35;;;;;;;10.23;4.78;;;;;;;29.66;26.60;97964.78;5061912;28;20112;-78
2022/09/12 02:04:19;;;;;;;5.03;4.10;;;;;;;29.55;26.81;97965.28;5064251;28;20478;-78
2022/09/12 02:06:59;;;;;;;5.43;4.90;;;;;;;29.22;27.39;97967.22;5067098;28;20021;-78
2022/09/12 02:09:39;;;;;;;5.03;3.83;;;;;;;29.19;27.72;97973.81;5061445;28;20090;-78
2022/09/12 02:12:08;;;;;;;5.28;4.25;;;;;;;29.46;27.21;97970.16;5068764;28;20122;-77
2022/09/12 02:14:40;;;;;;;4.38;3.95;;;;;;;28.92;28.35;97970.91;5063994;28;20108;-77
2022/09/12 02:17:12;;;;;;;9.13;5.63;;;;;;;28.89;27.97;97969.06;5067181;28;20031;-77
2022/09/12 02:20:15;;;;;;;6.65;4.55;;;;;;;28.68;28.55;97960.22;5063241;28;20402;-78
2022/09/12 02:22:44;;;;;;;5.93;5.28;;;;;;;29.07;27.61;97960.56;5013268;28;20044;-78
2022/09/12 02:25:13;;;;;;;5.40;3.80;;;;;;;29.00;27.82;97960.88;5065551;28;20028;-78
2022/09/12 02:28:01;;;;;;;3.83;3.53;;;;;;;29.04;27.43;97958.69;5063451;28;20044;-77
2022/09/12 02:30:35;;;;;;;4.88;4.35;;;;;;;29.21;26.96;97959.97;5065261;28;20037;-78
2022/09/12 02:33:13;;;;;;;5.03;4.28;;;;;;;29.24;26.64;97962.63;5065538;28;20373;-78
2022/09/12 02:35:52;;;;;;;5.28;4.40;;;;;;;29.31;26.75;97956.66;5064464;28;20071;-78
2022/09/12 02:38:29;;;;;;;6.18;4.50;;;;;;;29.33;26.70;97959.81;5062994;28;20029;-78
2022/09/12 02:40:55;;;;;;;4.80;4.30;;;;;;;29.32;26.46;97954.63;5065297;28;20481;-78
2022/09/12 02:43:21;;;;;;;5.38;4.15;;;;;;;29.26;26.42;97957.31;5068189;28;20516;-78
2022/09/12 02:45:47;;;;;;;3.95;3.55;;;;;;;29.18;26.62;97956.03;5069319;28;20039;-78
2022/09/12 02:48:26;;;;;;;4.30;3.85;;;;;;;29.27;26.35;97956.03;5069356;28;20486;-77
2022/09/12 02:50:53;;;;;;;5.43;4.68;;;;;;;28.63;27.32;97948.75;5067315;28;20506;-77
2022/09/12 02:53:20;;;;;;;5.80;4.60;;;;;;;29.06;26.86;97942.81;5065502;28;20028;-77
2022/09/12 02:55:46;;;;;;;6.05;5.50;;;;;;;29.18;26.87;97955.25;5064965;28;20115;-77
2022/09/12 02:58:23;;;;;;;7.13;4.63;;;;;;;28.69;27.86;97947.66;5088323;28;20467;-77
2022/09/12 03:01:20;;;;;;;6.47;5.03;;;;;;;29.12;27.20;97948.63;5065527;28;20127;-78
2022/09/12 03:04:18;;;;;;;5.47;4.95;;;;;;;28.89;27.75;97949.25;5039056;28;20056;-78
2022/09/12 03:07:06;;;;;;;7.57;5.53;;;;;;;28.38;28.66;97954.66;5022323;28;20133;-77
2022/09/12 03:09:48;;;;;;;7.55;5.60;;;;;;;28.60;28.66;97950.47;5064307;28;20040;-78
2022/09/12 03:12:46;;;;;;;10.27;6.13;;;;;;;28.65;28.46;97947.03;5065182;28;20032;-78
2022/09/12 03:15:41;;;;;;;9.32;6.72;;;;;;;28.27;29.42;97955.06;5069901;28;20106;-77
2022/09/12 03:18:49;;;;;;;7.60;5.35;;;;;;;28.06;29.99;97961.56;5072230;28;20028;-77
2022/09/12 03:21:33;;;;;;;10.60;7.07;;;;;;;27.89;30.07;97954.59;5068225;28;20028;-77
2022/09/12 03:24:15;;;;;;;7.53;5.82;;;;;;;27.86;30.30;97952.69;5071009;28;20489;-77
2022/09/12 03:26:51;;;;;;;8.90;6.10;;;;;;;28.49;29.29;97955.78;5069304;28;20041;-77
2022/09/12 03:29:19;;;;;;;7.63;6.60;;;;;;;28.10;30.29;97958.63;5084499;28;20032;-78
2022/09/12 03:31:56;;;;;;;9.23;7.15;;;;;;;27.40;31.16;97957.25;5069450;28;20107;-77
2022/09/12 03:34:24;;;;;;;6.10;5.47;;;;;;;27.84;30.07;97961.59;5063829;28;20031;-78
2022/09/12 03:36:54;;;;;;;6.80;6.00;;;;;;;27.81;29.90;97964.56;5070211;28;20111;-77
2022/09/12 03:39:23;;;;;;;9.98;7.75;;;;;;;27.81;29.88;97956.91;5065209;28;20036;-77
2022/09/12 03:41:49;;;;;;;5.72;5.15;;;;;;;28.09;29.25;97955.00;5067699;28;20435;-77
2022/09/12 03:44:16;;;;;;;6.30;5.70;;;;;;;28.02;29.46;97960.94;5064450;28;20028;-77
2022/09/12 03:46:42;;;;;;;9.00;5.85;;;;;;;27.55;29.86;97961.13;5069192;28;20107;-77
2022/09/12 03:49:09;;;;;;;8.60;6.70;;;;;;;27.44;30.02;97974.06;5061093;28;20041;-77
2022/09/12 03:51:36;;;;;;;8.40;7.20;;;;;;;27.70;29.62;97973.41;5066752;28;20085;-77
2022/09/12 03:54:02;;;;;;;6.68;5.97;;;;;;;27.91;29.69;97964.13;5065904;28;20473;-77
2022/09/12 03:56:29;;;;;;;6.50;5.88;;;;;;;28.16;29.41;97965.22;5064114;28;20036;-77
2022/09/12 03:58:55;;;;;;;8.63;7.32;;;;;;;28.57;28.81;97967.53;5066388;28;20029;-77
2022/09/12 04:01:21;;;;;;;6.90;6.20;;;;;;;28.86;28.51;97973.59;5059732;28;20457;-77
2022/09/12 04:03:50;;;;;;;7.10;5.53;;;;;;;29.06;27.99;97978.78;5063605;28;20032;-77
2022/09/12 04:06:20;;;;;;;8.73;6.47;;;;;;;28.57;28.67;97973.19;5065796;28;20477;-77
2022/09/12 04:08:53;;;;;;;8.05;6.53;;;;;;;28.33;29.32;97969.38;5067419;28;20029;-78
2022/09/12 04:11:21;;;;;;;7.15;6.43;;;;;;;28.32;29.08;97981.91;5066428;28;20036;-78
2022/09/12 04:13:48;;;;;;;6.10;5.50;;;;;;;27.39;30.86;97986.72;5069755;28;20583;-78
2022/09/12 04:16:16;;;;;;;9.05;6.63;;;;;;;26.88;31.48;97985.31;5061697;28;20371;-78
2022/09/12 04:18:42;;;;;;;9.15;8.20;;;;;;;26.32;32.12;97980.31;5065944;28;22512;-78
2022/09/12 04:21:11;;;;;;;10.55;6.63;;;;;;;27.45;30.26;97984.88;5067326;28;20035;-79
2022/09/12 04:23:38;;;;;;;9.30;7.40;;;;;;;28.30;28.98;97990.06;5067495;28;20067;-79
2022/09/12 04:26:06;;;;;;;7.38;6.15;;;;;;;27.94;29.46;97985.00;5066081;28;20493;-78
2022/09/12 04:28:33;;;;;;;11.75;9.00;;;;;;;28.22;29.06;97983.91;5067555;28;20039;-78
2022/09/12 04:31:09;;;;;;;7.45;6.25;;;;;;;28.17;29.38;97983.75;5066245;28;20044;-79
2022/09/12 04:33:35;;;;;;;9.80;7.95;;;;;;;27.91;29.94;97988.78;5069023;28;20067;-79
2022/09/12 04:36:15;;;;;;;8.85;7.95;;;;;;;27.32;31.06;97993.38;5064698;28;20478;-78
2022/09/12 04:38:43;;;;;;;10.25;6.93;;;;;;;27.61;30.35;97989.53;5066307;28;20150;-79
2022/09/12 04:41:22;;;;;;;6.90;6.13;;;;;;;27.84;30.13;97994.69;5063110;28;20033;-79
2022/09/12 04:43:57;;;;;;;9.65;7.18;;;;;;;26.57;32.39;97987.94;5058183;28;20052;-78
2022/09/12 04:46:24;;;;;;;8.68;7.32;;;;;;;26.78;31.56;97992.09;5062622;28;20119;-79
2022/09/12 04:48:50;;;;;;;10.77;9.13;;;;;;;27.49;30.63;98001.66;5059645;28;20128;-77
2022/09/12 04:51:20;;;;;;;11.48;7.93;;;;;;;26.63;31.93;98000.19;5064253;28;20079;-77
2022/09/12 04:53:51;;;;;;;9.10;7.80;;;;;;;26.99;31.11;98002.63;5070547;28;20028;-77
2022/09/12 04:56:18;;;;;;;14.40;9.43;;;;;;;26.57;32.05;98002.81;5073290;28;20032;-77
2022/09/12 04:58:45;;;;;;;12.10;9.05;;;;;;;27.01;31.59;98003.75;5073339;28;20039;-77
2022/09/12 05:01:17;;;;;;;9.95;8.60;;;;;;;27.15;31.75;98002.44;5073334;28;20032;-78
2022/09/12 05:03:44;;;;;;;10.55;8.40;;;;;;;26.39;33.09;98007.44;5074627;28;20028;-77
2022/09/12 05:06:22;;;;;;;11.93;10.43;;;;;;;26.00;34.50;98005.81;5074632;28;20477;-77
2022/09/12 05:08:49;;;;;;;13.60;9.55;;;;;;;26.67;32.40;98014.97;5074616;28;20546;-77
2022/09/12 05:11:19;;;;;;;13.68;10.00;;;;;;;26.88;32.49;98010.66;5074122;28;20102;-77
2022/09/12 05:13:45;;;;;;;10.23;8.90;;;;;;;26.99;31.69;98020.34;5074657;28;20039;-77
2022/09/12 05:16:14;;;;;;;12.13;9.27;;;;;;;27.37;31.23;98018.19;5074483;28;20033;-77
2022/09/12 05:18:41;;;;;;;9.05;7.22;;;;;;;27.62;30.78;98025.72;5074083;28;20466;-77
2022/09/12 05:21:10;;;;;;;11.73;9.20;;;;;;;26.74;32.82;98029.59;5073073;28;20032;-77
2022/09/12 05:23:36;;;;;;;10.38;8.73;;;;;;;26.91;32.70;98015.41;5074549;28;20033;-77
2022/09/12 05:26:04;;;;;;;12.85;10.20;;;;;;;27.38;30.92;98024.59;5059520;28;20075;-77
2022/09/12 05:28:36;;;;;;;10.15;8.23;;;;;;;27.47;31.28;98030.31;5071842;28;20036;-77
2022/09/12 05:31:05;;;;;;;9.10;7.68;;;;;;;27.92;30.20;98024.19;5072900;28;20037;-77
2022/09/12 05:33:33;;;;;;;9.32;8.25;;;;;;;28.08;29.99;98033.25;5074011;28;20028;-77
2022/09/12 05:36:00;;;;;;;9.00;7.28;;;;;;;28.48;29.34;98033.28;5060917;28;20033;-77
2022/09/12 05:38:27;;;;;;;8.50;7.63;;;;;;;27.65;30.08;98032.50;5054200;28;20108;-77
2022/09/12 05:41:02;;;;;;;8.50;7.65;;;;;;;28.34;29.47;98038.72;5068257;28;20025;-78
2022/09/12 05:43:29;;;;;;;7.13;6.38;;;;;;;28.25;29.84;98038.66;5072319;28;20535;-77
2022/09/12 05:46:09;;;;;;;12.93;9.95;;;;;;;27.51;30.59;98036.63;5054014;28;20025;-77
2022/09/12 05:48:35;;;;;;;12.52;9.57;;;;;;;26.99;31.86;98039.25;5053650;28;20033;-78
2022/09/12 05:51:10;;;;;;;11.43;7.85;;;;;;;27.87;30.33;98042.50;5053801;28;20041;-77
2022/09/12 05:53:39;;;;;;;8.00;7.20;;;;;;;28.30;28.69;98043.72;5084388;28;20386;-77
2022/09/12 05:56:11;;;;;;;12.10;9.18;;;;;;;28.16;29.43;98044.28;5087787;28;20487;-77
2022/09/12 05:58:39;;;;;;;10.30;9.18;;;;;;;28.34;28.71;98038.72;5074900;28;20107;-77
2022/09/12 06:01:11;;;;;;;15.20;9.98;;;;;;;27.66;29.47;98037.66;5081947;28;20112;-77
2022/09/12 06:03:50;;;;;;;10.52;7.45;;;;;;;26.47;33.08;98039.75;5053728;28;20509;-77
2022/09/12 06:06:21;;;;;;;9.65;7.35;;;;;;;27.47;30.68;98049.28;5053603;28;20037;-77
2022/09/12 06:08:50;;;;;;;9.60;8.60;;;;;;;27.74;29.97;98039.00;5053431;28;20029;-77
2022/09/12 06:11:22;;;;;;;8.30;7.40;;;;;;;27.51;31.54;98045.09;5053629;28;20032;-77
2022/09/12 06:13:49;;;;;;;10.38;8.35;;;;;;;27.61;29.63;98057.22;5053516;28;20495;-77
2022/09/12 06:16:21;;;;;;;8.55;7.75;;;;;;;26.88;32.12;98050.91;5061143;28;20036;-77
2022/09/12 06:18:52;;;;;;;9.23;6.75;;;;;;;27.33;30.96;98048.50;5072429;28;20470;-78
2022/09/12 06:21:20;;;;;;;9.73;8.18;;;;;;;28.16;29.27;98047.09;5073491;28;20055;-77
2022/09/12 06:23:47;;;;;;;8.90;6.88;;;;;;;27.40;30.74;98058.75;5073434;28;20033;-77
2022/09/12 06:26:16;;;;;;;7.80;6.72;;;;;;;27.22;30.56;98067.84;5073438;28;20032;-77
2022/09/12 06:28:43;;;;;;;6.68;5.95;;;;;;;27.51;30.25;98062.00;5071537;28;20059;-77
2022/09/12 06:31:17;;;;;;;6.65;5.95;;;;;;;28.08;29.45;98061.47;5053982;28;20040;-77
2022/09/12 06:33:46;;;;;;;5.80;5.20;;;;;;;27.91;29.62;98067.78;5064615;28;20516;-77
2022/09/12 06:36:19;;;;;;;6.82;5.25;;;;;;;27.96;28.42;98070.78;5072548;28;20033;-77
2022/09/12 06:38:46;;;;;;;6.93;6.22;;;;;;;26.98;31.60;98075.09;5073109;28;20024;-78
2022/09/12 06:41:13;;;;;;;7.85;6.78;;;;;;;24.92;35.03;98077.94;5072799;28;20067;-78
2022/09/12 06:43:40;;;;;;;9.32;5.40;;;;;;;27.03;29.92;98063.25;5073216;28;20029;-77
2022/09/12 06:46:08;;;;;;;6.55;5.72;;;;;;;28.10;28.15;98063.06;5072924;28;20032;-78
2022/09/12 06:48:34;;;;;;;5.97;5.47;;;;;;;27.63;30.10;98072.44;5072876;28;20114;-78
2022/09/12 06:51:03;;;;;;;8.57;5.75;;;;;;;28.23;28.21;98072.22;5072398;28;20094;-78
2022/09/12 06:53:35;;;;;;;5.78;5.13;;;;;;;28.30;28.13;98069.13;5055777;28;20100;-77
2022/09/12 06:56:22;;;;;;;5.53;4.97;;;;;;;28.74;27.89;98074.22;5055176;28;20064;-77
2022/09/12 06:58:50;;;;;;;4.63;4.22;;;;;;;29.24;27.50;98070.09;5073027;28;20055;-78
2022/09/12 07:01:19;;;;;;;6.28;5.28;;;;;;;27.80;29.73;98073.03;5072744;28;20059;-77
2022/09/12 07:04:04;;;;;;;7.88;5.13;;;;;;;28.47;27.77;98070.47;5073040;28;20037;-77
2022/09/12 07:06:39;;;;;;;7.13;5.68;;;;;;;28.26;28.37;98080.56;5072387;28;20028;-77
2022/09/12 07:09:08;;;;;;;5.55;4.95;;;;;;;27.32;31.05;98072.31;5071945;28;20028;-78
2022/09/12 07:11:36;;;;;;;5.78;4.57;;;;;;;28.68;28.50;98073.25;5072908;28;20037;-78
2022/09/12 07:14:04;;;;;;;6.22;4.50;;;;;;;28.90;28.11;98075.19;5072828;28;20393;-78
2022/09/12 07:16:31;;;;;;;4.13;3.72;;;;;;;28.51;27.83;98073.94;5072036;28;20041;-78
2022/09/12 07:19:00;;;;;;;4.28;3.88;;;;;;;28.04;29.02;98079.81;5072960;28;20041;-78
2022/09/12 07:21:27;;;;;;;4.85;4.28;;;;;;;27.14;32.21;98088.28;5072344;28;20448;-78
2022/09/12 07:23:56;;;;;;;4.90;4.35;;;;;;;27.51;30.17;98080.97;5070646;28;20079;-78
2022/09/12 07:26:27;;;;;;;4.13;3.70;;;;;;;28.43;28.07;98086.75;5066237;28;20025;-78
2022/09/12 07:28:55;;;;;;;4.50;3.83;;;;;;;28.49;27.21;98084.91;5069756;28;20044;-78
2022/09/12 07:31:24;;;;;;;7.32;3.70;;;;;;;28.90;26.84;98089.31;5072799;28;20064;-78
2022/09/12 07:33:50;;;;;;;4.00;3.60;;;;;;;28.42;27.99;98086.00;5072826;28;20032;-78
2022/09/12 07:36:22;;;;;;;3.90;3.50;;;;;;;28.60;27.23;98093.78;5072597;28;20397;-78
2022/09/12 07:38:52;;;;;;;7.65;3.95;;;;;;;27.32;31.92;98091.25;5072778;28;20025;-78
2022/09/12 07:41:22;;;;;;;4.47;4.10;;;;;;;27.31;29.45;98104.56;5068004;28;20067;-78
2022/09/12 07:43:55;;;;;;;5.78;3.92;;;;;;;26.90;28.82;98096.31;5060431;28;20029;-78
2022/09/12 07:46:22;;;;;;;4.55;4.13;;;;;;;27.71;28.01;98099.16;5051282;28;20025;-78
2022/09/12 07:48:50;;;;;;;3.80;3.50;;;;;;;29.18;28.66;98096.66;5051296;28;20041;-78
2022/09/12 07:51:16;;;;;;;3.67;3.38;;;;;;;29.05;29.09;98093.94;5052252;28;20174;-78
2022/09/12 07:53:42;;;;;;;5.78;2.88;;;;;;;28.81;26.22;98078.78;5052153;28;20112;-78
2022/09/12 07:56:10;;;;;;;4.30;3.90;;;;;;;28.36;28.11;98101.16;5050953;28;20104;-78
2022/09/12 07:58:37;;;;;;;3.72;3.40;;;;;;;28.31;27.07;98090.47;5069979;28;20029;-78
2022/09/12 08:01:12;;;;;;;4.72;3.38;;;;;;;27.38;27.77;98086.63;5061131;28;20490;-78
2022/09/12 08:03:39;;;;;;;3.83;2.67;;;;;;;27.57;27.58;98091.19;5056375;28;20061;-78
2022/09/12 08:06:06;;;;;;;3.65;3.35;;;;;;;27.55;29.15;98096.50;5056911;28;20482;-78
2022/09/12 08:08:33;;;;;;;9.38;3.50;;;;;;;26.17;32.30;98091.78;5066148;28;20040;-78
2022/09/12 08:11:00;;;;;;;4.03;3.63;;;;;;;27.54;28.86;98094.91;5064281;28;20035;-78
2022/09/12 08:13:29;;;;;;;4.78;3.15;;;;;;;28.60;26.94;98097.41;5059719;28;20029;-78
2022/09/12 08:15:59;;;;;;;3.92;2.65;;;;;;;27.92;25.47;98101.19;5075596;28;20481;-78
2022/09/12 08:18:27;;;;;;;3.10;2.78;;;;;;;26.76;31.07;98110.88;5066116;28;20058;-79
2022/09/12 08:20:58;;;;;;;6.15;2.20;;;;;;;27.56;28.33;98094.47;5075731;28;20067;-78
2022/09/12 08:23:24;;;;;;;3.45;3.13;;;;;;;27.01;33.36;98108.03;5075874;28;20024;-78
2022/09/12 08:25:53;;;;;;;2.50;2.17;;;;;;;27.83;28.45;98106.78;5075346;28;20052;-78
2022/09/12 08:28:19;;;;;;;4.53;2.03;;;;;;;28.70;26.29;98092.56;5075105;28;20025;-78
2022/09/12 08:30:45;;;;;;;3.67;2.40;;;;;;;28.51;26.08;98093.72;5061226;28;20033;-78
2022/09/12 08:33:11;;;;;;;3.60;2.63;;;;;;;28.71;26.52;98099.78;5070749;28;20482;-78
2022/09/12 08:35:38;;;;;;;2.78;2.20;;;;;;;28.18;29.29;98104.69;5074774;28;20516;-78
2022/09/12 08:38:04;;;;;;;2.40;2.20;;;;;;;28.96;25.60;98091.09;5075354;28;20033;-78
2022/09/12 08:40:30;;;;;;;1.92;1.83;;;;;;;28.74;26.29;98102.47;5075328;28;20543;-78
2022/09/12 08:43:13;;;;;;;2.40;2.05;;;;;;;28.55;26.88;98105.66;5073700;28;20445;-78
2022/09/12 08:45:52;;;;;;;2.25;1.80;;;;;;;27.92;27.34;98106.03;5074313;28;20029;-78
2022/09/12 08:48:19;;;;;;;3.05;1.45;;;;;;;28.50;25.66;98100.59;5075136;28;20436;-78
2022/09/12 08:50:46;;;;;;;1.63;1.50;;;;;;;28.81;24.74;98104.22;5074248;28;20102;-78
2022/09/12 08:53:18;;;;;;;3.67;1.90;;;;;;;28.27;28.15;98109.59;5075058;28;20493;-78
2022/09/12 08:55:52;;;;;;;1.90;1.70;;;;;;;27.20;30.06;98103.34;5069203;28;20032;-78
2022/09/12 08:58:23;;;;;;;2.22;1.73;;;;;;;28.39;27.61;98095.38;5055227;28;20147;-78
2022/09/12 09:01:09;;;;;;;1.85;1.55;;;;;;;29.20;30.38;98105.44;5054913;28;20051;-78
2022/09/12 09:03:55;;;;;;;2.53;1.90;;;;;;;28.98;27.23;98099.09;5055046;28;20032;-78
2022/09/12 09:06:41;;;;;;;3.20;2.10;;;;;;;27.04;30.78;98103.50;5063495;28;20037;-78
2022/09/12 09:09:34;;;;;;;2.63;1.98;;;;;;;27.43;29.38;98102.97;5059106;28;20493;-78
2022/09/12 09:12:30;;;;;;;2.17;1.83;;;;;;;27.50;27.13;98099.91;5054307;28;20490;-78
2022/09/12 09:15:20;;;;;;;2.55;2.17;;;;;;;28.11;28.69;98104.16;5053345;28;20033;-78
2022/09/12 09:18:09;;;;;;;3.60;2.05;;;;;;;28.78;28.43;98104.38;5054906;28;20070;-78
2022/09/12 09:20:46;;;;;;;3.90;2.20;;;;;;;28.79;25.54;98103.91;5055013;28;20036;-78
2022/09/12 09:23:25;;;;;;;2.50;2.30;;;;;;;28.28;27.91;98099.88;5061851;28;20047;-78
2022/09/12 09:25:57;;;;;;;3.60;1.83;;;;;;;29.25;26.84;98102.78;5073441;28;20025;-78
2022/09/12 09:28:43;;;;;;;2.17;1.98;;;;;;;29.56;29.02;98101.88;5074512;28;20028;-78
2022/09/12 09:31:14;;;;;;;2.08;1.60;;;;;;;29.06;27.40;98101.16;5074292;28;20060;-78
2022/09/12 09:33:42;;;;;;;1.77;1.67;;;;;;;29.13;27.72;98098.03;5074643;28;20056;-78
2022/09/12 09:36:39;;;;;;;3.70;1.85;;;;;;;28.93;29.64;98100.50;5074621;28;20061;-78
2022/09/12 09:39:18;;;;;;;2.78;2.10;;;;;;;27.22;29.85;98101.66;5074060;28;20025;-78
2022/09/12 09:42:32;;;;;;;3.15;1.90;;;;;;;27.92;30.74;98100.38;5073223;28;20036;-78
2022/09/12 09:45:01;;;;;;;2.10;1.77;;;;;;;28.47;28.37;98098.72;5055529;28;20563;-78
2022/09/12 09:47:28;;;;;;;2.28;2.00;;;;;;;27.21;31.29;98097.25;5073885;28;20028;-78
2022/09/12 09:49:54;;;;;;;2.05;1.30;;;;;;;28.18;25.95;98095.41;5073657;28;20126;-78
2022/09/12 09:52:27;;;;;;;2.55;1.73;;;;;;;28.84;24.22;98091.19;5074072;28;20427;-78
2022/09/12 09:55:01;;;;;;;3.20;1.90;;;;;;;28.81;29.16;98095.75;5066271;28;20048;-78
2022/09/12 09:57:33;;;;;;;2.92;1.63;;;;;;;28.04;24.96;98091.09;5062761;28;20075;-78
2022/09/12 10:00:29;;;;;;;1.75;1.65;;;;;;;27.61;26.56;98093.91;5060400;28;20036;-78
2022/09/12 10:03:13;;;;;;;3.63;1.60;;;;;;;28.50;25.51;98086.47;5054082;28;20405;-78
2022/09/12 10:05:50;;;;;;;2.42;1.20;;;;;;;28.83;24.34;98083.97;5052576;28;20043;-78
2022/09/12 10:08:25;;;;;;;2.95;2.10;;;;;;;28.41;29.27;98097.72;5053546;28;20029;-78
2022/09/12 10:11:00;;;;;;;2.17;1.30;;;;;;;30.07;24.44;98078.13;5069022;28;20029;-78
2022/09/12 10:13:41;;;;;;;1.88;1.73;;;;;;;28.21;32.06;98083.19;5055656;28;20033;-78
2022/09/12 10:16:26;;;;;;;1.85;1.75;;;;;;;27.46;35.25;98093.63;5054027;28;20359;-78
2022/09/12 10:18:54;;;;;;;1.55;1.10;;;;;;;27.76;26.60;98092.91;5053484;28;20045;-78
2022/09/12 10:21:22;;;;;;;2.83;1.27;;;;;;;28.62;23.59;98088.44;5053329;28;20029;-78
2022/09/12 10:24:02;;;;;;;1.77;1.20;;;;;;;29.73;24.54;98086.16;5052644;28;20056;-78
2022/09/12 10:26:33;;;;;;;1.65;1.33;;;;;;;30.24;22.67;98087.06;5053844;28;20029;-78
2022/09/12 10:29:10;;;;;;;2.05;1.25;;;;;;;29.58;26.37;98086.00;5058733;28;20032;-78
2022/09/12 10:31:53;;;;;;;1.75;0.98;;;;;;;29.96;25.71;98094.03;5073174;28;20033;-78
2022/09/12 10:35:00;;;;;;;1.38;1.10;;;;;;;29.63;24.71;98087.41;5071212;28;20115;-77
2022/09/12 10:37:35;;;;;;;1.20;1.00;;;;;;;30.03;25.55;98093.72;4991902;28;20128;-78
2022/09/12 10:40:04;;;;;;;0.85;0.73;;;;;;;29.41;25.89;98094.00;4987849;28;20034;-78
2022/09/12 10:42:49;;;;;;;2.67;1.42;;;;;;;29.15;26.34;98095.50;5035673;28;20051;-78
2022/09/12 10:45:36;;;;;;;1.20;1.10;;;;;;;29.54;24.32;98082.56;5071793;28;20033;-78
2022/09/12 10:48:23;;;;;;;4.07;1.10;;;;;;;29.52;25.37;98106.91;5070141;28;20074;-78
2022/09/12 10:50:49;;;;;;;1.13;1.02;;;;;;;28.55;30.36;98089.50;5065968;28;20076;-78
2022/09/12 10:53:29;;;;;;;0.95;0.80;;;;;;;29.62;23.17;98089.47;5067064;28;20051;-79
2022/09/12 10:56:12;;;;;;;1.30;1.08;;;;;;;29.94;22.87;98079.56;5068555;28;20032;-79
2022/09/12 10:59:14;;;;;;;1.70;1.13;;;;;;;29.41;27.42;98093.22;5065565;28;20061;-78
2022/09/12 11:01:43;;;;;;;0.90;0.90;;;;;;;28.74;30.23;98082.69;5065593;28;20024;-80
2022/09/12 11:04:27;;;;;;;1.10;1.00;;;;;;;29.06;25.41;98080.56;5070270;28;20173;-80
2022/09/12 11:07:19;;;;;;;1.00;0.90;;;;;;;30.04;21.28;98078.28;5063485;28;20041;-80
2022/09/12 11:10:23;;;;;;;1.10;1.00;;;;;;;29.86;23.14;98083.97;5064261;28;20040;-80
2022/09/12 11:12:58;;;;;;;1.20;0.93;;;;;;;30.57;23.54;98082.22;5070764;28;20489;-80
2022/09/12 11:15:51;;;;;;;2.20;1.00;;;;;;;31.08;22.00;98070.84;5069367;28;20032;-79
2022/09/12 11:18:32;;;;;;;4.07;1.40;;;;;;;29.85;27.27;98085.25;5066934;28;20453;-80
2022/09/12 11:20:58;;;;;;;;;;;;;;;29.47;27.14;98088.53;5070310;28;20044;-80
2022/09/12 11:23:36;;;;;;;1.27;0.80;;;;;;;28.60;26.42;98088.13;5069942;28;19943;-80
2022/09/12 11:26:31;;;;;;;1.10;1.00;;;;;;;27.80;29.05;98098.41;5069802;28;20058;-79
2022/09/12 11:29:24;;;;;;;2.25;1.05;;;;;;;27.42;30.32;98101.41;5065023;28;20076;-79
2022/09/12 11:32:11;;;;;;;1.85;1.20;;;;;;;27.98;25.26;98090.88;5070291;28;20040;-80
2022/09/12 11:34:52;;;;;;;1.40;1.27;;;;;;;28.18;31.42;98079.28;5071646;28;20419;-79
2022/09/12 11:37:52;;;;;;;1.52;1.23;;;;;;;28.68;27.06;98086.59;5069947;28;20493;-80
2022/09/12 11:40:21;;;;;;;0.90;0.90;;;;;;;30.21;23.36;98078.72;5071438;28;20425;-79
2022/09/12 11:42:52;;;;;;;0.82;0.82;;;;;;;30.08;26.51;98079.69;5073412;28;20080;-79
2022/09/12 11:45:45;;;;;;;1.38;1.20;;;;;;;30.06;25.00;98078.59;5074006;28;20538;-79
2022/09/12 11:48:22;;;;;;;1.63;1.00;;;;;;;30.06;25.32;98087.88;5068856;28;20037;-79
2022/09/12 11:50:49;;;;;;;1.50;0.90;;;;;;;29.93;27.97;98089.31;5072394;28;20056;-79
2022/09/12 11:53:25;;;;;;;1.63;0.98;;;;;;;30.15;20.56;98080.63;5071711;28;20079;-79
2022/09/12 11:55:58;;;;;;;1.42;0.80;;;;;;;30.42;23.75;98092.69;5066154;28;20394;-79
2022/09/12 11:58:28;;;;;;;1.15;1.00;;;;;;;30.82;23.56;98077.41;5067845;28;20037;-79
2022/09/12 12:01:02;;;;;;;4.30;1.00;;;;;;;30.44;22.91;98092.22;5072094;28;20037;-79
2022/09/12 12:03:36;;;;;;;1.80;1.13;;;;;;;31.77;21.96;98081.84;5075858;28;20024;-79
2022/09/12 12:06:14;;;;;;;1.70;1.23;;;;;;;30.73;23.24;98072.56;5075608;28;20440;-79